Time,TemperatureF,DewpointF,PressureIn,WindDirection,WindDirectionDegrees,WindSpeedMPH,WindSpeedGustMPH,Humidity,HourlyPrecipIn,Conditions,Clouds,dailyrainin,SoftwareType,DateUTC
2014-01-16 00:43:00,47.0,32.0,29.95,NW,309,5.0,13.0,57,0.00,,,-99.99,,2014-01-16 05:43:00,
2014-01-16 01:43:00,46.0,33.0,29.94,NW,313,3.0,9.0,61,0.00,,,-99.99,,2014-01-16 06:43:00,
2014-01-16 02:42:00,46.0,32.0,29.95,WNW,301,3.0,9.0,58,0.00,,,-99.99,,2014-01-16 07:42:00,
2014-01-16 03:42:00,45.0,27.0,29.97,WNW,294,3.0,8.0,48,0.00,,,-99.99,,2014-01-16 08:42:00,
2014-01-16 04:43:00,44.0,26.0,29.97,NW,321,2.0,6.0,48,0.00,,,-99.99,,2014-01-16 09:43:00,
2014-01-16 05:43:00,43.0,23.0,29.97,WNW,302,4.0,9.0,44,0.00,,,-99.99,,2014-01-16 10:43:00,
2014-01-16 06:42:00,40.0,22.0,29.99,WNW,298,3.0,8.0,47,0.00,,,-99.99,,2014-01-16 11:42:00,
2014-01-16 07:42:00,37.0,23.0,30.01,West,280,3.0,7.0,55,0.00,,,-99.99,,2014-01-16 12:42:00,
2014-01-16 08:42:00,35.0,24.0,30.03,West,276,4.0,9.0,64,0.00,,,-99.99,,2014-01-16 13:42:00,
2014-01-16 09:42:00,36.0,26.0,30.05,WNW,303,4.0,12.0,66,0.00,,,-99.99,,2014-01-16 14:42:00,
2014-01-16 10:43:00,39.0,26.0,30.07,WNW,302,5.0,10.0,59,0.00,,,-99.99,,2014-01-16 15:43:00,
2014-01-16 11:43:00,42.0,27.0,30.07,WNW,300,4.0,8.0,56,0.00,,,-99.99,,2014-01-16 16:43:00,
2014-01-16 12:43:00,45.0,29.0,30.05,WNW,297,3.0,8.0,52,0.00,,,-99.99,,2014-01-16 17:43:00,
2014-01-16 13:42:00,47.0,25.0,30.01,NW,304,5.0,9.0,42,0.00,,,-99.99,,2014-01-16 18:42:00,
2014-01-16 14:42:00,48.0,25.0,30.01,WNW,290,3.0,9.0,40,0.00,,,-99.99,,2014-01-16 19:42:00,
2014-01-16 15:42:00,47.0,23.0,30.00,WNW,299,4.0,8.0,38,0.00,,,-99.99,,2014-01-16 20:42:00,
2014-01-16 16:43:00,48.0,23.0,30.02,WNW,293,3.0,9.0,37,0.00,,,-99.99,,2014-01-16 21:43:00,
2014-01-16 17:42:00,47.0,22.0,30.03,West,274,4.0,9.0,37,0.00,,,-99.99,,2014-01-16 22:42:00,
2014-01-16 18:42:00,43.0,23.0,30.05,West,266,1.0,4.0,44,0.00,,,-99.99,,2014-01-16 23:42:00,
2014-01-16 19:42:00,40.0,24.0,30.07,West,261,2.0,4.0,53,0.00,,,-99.99,,2014-01-17 00:42:00,
2014-01-16 20:42:00,40.0,23.0,30.10,WSW,248,1.0,4.0,50,0.00,,,-99.99,,2014-01-17 01:42:00,
2014-01-16 21:42:00,36.0,26.0,30.10,West,263,0.0,0.0,67,0.00,,,-99.99,,2014-01-17 02:42:00,
2014-01-16 22:43:00,34.0,28.0,30.11,West,263,0.0,0.0,78,0.00,,,-99.99,,2014-01-17 03:43:00,
2014-01-16 23:43:00,34.0,30.0,30.11,West,263,0.0,0.0,84,0.00,,,-99.99,,2014-01-17 04:43:00,